createdAt,value
2022-11-29T00:00:03.956Z,101274.65
2022-11-29T00:00:34.391Z,101275.33
2022-11-29T00:01:04.810Z,101272.97
2022-11-29T00:01:35.261Z,101273.96
2022-11-29T00:02:05.878Z,101272.66
2022-11-29T00:02:36.466Z,101274.48
2022-11-29T00:03:06.956Z,101273.65
2022-11-29T00:03:37.386Z,101272.66
2022-11-29T00:04:12.690Z,101269.12
2022-11-29T00:04:43.519Z,101277.17
2022-11-29T00:05:14.043Z,101275.16
2022-11-29T00:05:44.495Z,101273.00
2022-11-29T00:06:14.893Z,101275.69
2022-11-29T00:06:45.321Z,101274.98
2022-11-29T00:07:15.811Z,101279.00
2022-11-29T00:07:46.203Z,101275.14
2022-11-29T00:08:16.606Z,101274.98
2022-11-29T00:08:47.032Z,101273.27
2022-11-29T00:09:17.449Z,101275.16
2022-11-29T00:09:47.895Z,101275.14
2022-11-29T00:10:18.324Z,101276.31
2022-11-29T00:10:48.748Z,101273.14
2022-11-29T00:11:19.170Z,101277.50
2022-11-29T00:11:49.626Z,101276.84
2022-11-29T00:12:20.042Z,101273.82
2022-11-29T00:12:50.496Z,101275.81
2022-11-29T00:13:20.907Z,101271.64
2022-11-29T00:13:51.340Z,101278.02
2022-11-29T00:14:21.764Z,101276.82
2022-11-29T00:14:52.181Z,101276.31
2022-11-29T00:15:22.606Z,101277.17
2022-11-29T00:15:53.027Z,101275.84
2022-11-29T00:16:23.511Z,101277.52
2022-11-29T00:16:54.043Z,101276.34
2022-11-29T00:17:24.448Z,101278.19
2022-11-29T00:17:54.870Z,101280.53
2022-11-29T00:18:25.296Z,101280.53
2022-11-29T00:18:55.717Z,101277.51
2022-11-29T00:19:26.137Z,101280.20
2022-11-29T00:19:56.571Z,101280.70
2022-11-29T00:20:26.997Z,101279.17
2022-11-29T00:20:57.440Z,101277.48
2022-11-29T00:21:27.838Z,101275.49
2022-11-29T00:21:58.272Z,101278.54
2022-11-29T00:22:28.695Z,101277.52
2022-11-29T00:22:59.117Z,101279.87
2022-11-29T00:23:29.535Z,101279.38
2022-11-29T00:23:59.974Z,101277.85
2022-11-29T00:24:30.399Z,101279.55
2022-11-29T00:25:00.822Z,101281.23
2022-11-29T00:25:31.247Z,101280.05
2022-11-29T00:26:01.665Z,101281.02
2022-11-29T00:26:32.087Z,101279.69
2022-11-29T00:27:02.528Z,101278.52
2022-11-29T00:27:32.968Z,101283.88
2022-11-29T00:28:03.391Z,101283.08
2022-11-29T00:28:33.820Z,101283.38
2022-11-29T00:29:04.240Z,101283.05
2022-11-29T00:29:34.663Z,101283.54
2022-11-29T00:30:05.084Z,101283.89
2022-11-29T00:30:35.562Z,101284.56
2022-11-29T00:31:05.980Z,101285.55
2022-11-29T00:31:36.375Z,101283.53
2022-11-29T00:32:06.821Z,101285.05
2022-11-29T00:32:37.243Z,101287.41
2022-11-29T00:33:07.662Z,101282.70
2022-11-29T00:33:38.085Z,101281.71
2022-11-29T00:34:08.508Z,101284.08
2022-11-29T00:34:38.929Z,101284.73
2022-11-29T00:35:09.866Z,101282.57
2022-11-29T00:35:40.392Z,101281.21
2022-11-29T00:36:10.837Z,101284.59
2022-11-29T00:36:41.245Z,101281.89
2022-11-29T00:37:11.688Z,101280.88
2022-11-29T00:37:42.111Z,101285.72
2022-11-29T00:38:12.533Z,101280.72
2022-11-29T00:38:42.961Z,101282.20
2022-11-29T00:39:13.391Z,101282.23
2022-11-29T00:39:43.808Z,101283.73
2022-11-29T00:40:14.236Z,101277.84
2022-11-29T00:40:44.657Z,101281.89
2022-11-29T00:41:15.080Z,101279.20
2022-11-29T00:41:45.508Z,101278.02
2022-11-29T00:42:15.940Z,101277.37
2022-11-29T00:42:46.362Z,101280.05
2022-11-29T00:43:16.789Z,101276.69
2022-11-29T00:43:47.210Z,101280.70
2022-11-29T00:44:20.523Z,101280.38
2022-11-29T00:44:51.149Z,101278.71
2022-11-29T00:45:21.571Z,101279.72
2022-11-29T00:45:52.034Z,101277.56
2022-11-29T00:46:22.588Z,101281.55
2022-11-29T00:46:53.003Z,101278.02
2022-11-29T00:47:23.436Z,101282.06
2022-11-29T00:47:53.858Z,101276.70
2022-11-29T00:48:24.299Z,101276.36
2022-11-29T00:48:54.721Z,101277.03
2022-11-29T00:49:25.144Z,101276.84
2022-11-29T00:49:55.571Z,101282.72
2022-11-29T00:50:25.992Z,101281.38
2022-11-29T00:50:56.415Z,101281.88
2022-11-29T00:51:26.860Z,101279.20
2022-11-29T00:51:57.260Z,101281.55
2022-11-29T00:52:27.712Z,101280.04
2022-11-29T00:52:58.136Z,101278.70
2022-11-29T00:53:28.557Z,101277.88
2022-11-29T00:53:58.981Z,101280.38
2022-11-29T00:54:29.403Z,101280.54
2022-11-29T00:54:59.828Z,101279.87
2022-11-29T00:55:30.248Z,101281.40
2022-11-29T00:56:00.668Z,101280.88
2022-11-29T00:56:31.093Z,101280.05
2022-11-29T00:57:01.516Z,101282.74
2022-11-29T00:57:31.950Z,101279.87
2022-11-29T00:58:02.376Z,101277.69
2022-11-29T00:58:32.795Z,101278.55
2022-11-29T00:59:03.218Z,101278.72
2022-11-29T00:59:33.639Z,101278.23
2022-11-29T01:00:04.060Z,101282.05
2022-11-29T01:00:34.481Z,101281.41
2022-11-29T01:01:04.933Z,101280.41
2022-11-29T01:01:35.513Z,101280.05
2022-11-29T01:02:06.014Z,101281.73
2022-11-29T01:02:36.443Z,101281.38
2022-11-29T01:03:06.823Z,101281.72
2022-11-29T01:03:37.244Z,101280.21
2022-11-29T01:04:07.670Z,101279.70
2022-11-29T01:04:38.089Z,101279.22
2022-11-29T01:05:08.509Z,101277.39
2022-11-29T01:05:38.938Z,101277.86
2022-11-29T01:06:09.363Z,101275.02
2022-11-29T01:06:39.813Z,101280.88
2022-11-29T01:07:10.223Z,101279.89
2022-11-29T01:07:40.720Z,101280.06
2022-11-29T01:08:11.108Z,101279.53
2022-11-29T01:08:41.535Z,101280.73
2022-11-29T01:09:12.003Z,101278.20
2022-11-29T01:09:42.426Z,101279.88
2022-11-29T01:10:12.849Z,101285.27
2022-11-29T01:10:43.293Z,101283.08
2022-11-29T01:11:13.715Z,101281.91
2022-11-29T01:11:44.138Z,101281.89
2022-11-29T01:12:14.563Z,101281.56
2022-11-29T01:12:44.994Z,101275.52
2022-11-29T01:13:15.413Z,101279.89
2022-11-29T01:13:45.837Z,101279.05
2022-11-29T01:14:16.259Z,101282.39
2022-11-29T01:14:46.978Z,101277.70
2022-11-29T01:15:17.423Z,101279.70
2022-11-29T01:15:47.865Z,101281.56
2022-11-29T01:16:18.375Z,101277.35
2022-11-29T01:16:48.830Z,101276.01
2022-11-29T01:17:19.205Z,101279.70
2022-11-29T01:17:49.654Z,101279.70
2022-11-29T01:18:20.073Z,101278.36
2022-11-29T01:18:50.502Z,101281.91
2022-11-29T01:19:20.927Z,101280.56
2022-11-29T01:19:51.349Z,101277.38
2022-11-29T01:20:21.776Z,101278.86
2022-11-29T01:20:52.199Z,101278.86
2022-11-29T01:21:22.621Z,101281.72
2022-11-29T01:21:53.066Z,101278.36
2022-11-29T01:22:23.476Z,101277.38
2022-11-29T01:22:53.905Z,101279.20
2022-11-29T01:23:24.325Z,101277.37
2022-11-29T01:23:54.747Z,101281.05
2022-11-29T01:24:25.165Z,101280.22
2022-11-29T01:24:55.585Z,101278.70
2022-11-29T01:25:26.007Z,101280.55
2022-11-29T01:25:56.432Z,101280.70
2022-11-29T01:26:26.865Z,101277.34
2022-11-29T01:26:57.285Z,101281.05
2022-11-29T01:27:27.708Z,101279.37
2022-11-29T01:27:58.160Z,101282.22
2022-11-29T01:28:28.593Z,101279.72
2022-11-29T01:28:59.016Z,101283.08
2022-11-29T01:29:29.441Z,101283.59
2022-11-29T01:29:59.862Z,101280.03
2022-11-29T01:30:30.355Z,101282.89
2022-11-29T01:31:00.798Z,101282.39
2022-11-29T01:31:31.242Z,101281.38
2022-11-29T01:32:01.616Z,101284.75
2022-11-29T01:32:32.040Z,101281.86
2022-11-29T01:33:02.490Z,101283.39
2022-11-29T01:33:32.910Z,101285.42
2022-11-29T01:34:03.332Z,101284.59
2022-11-29T01:34:33.767Z,101283.39
2022-11-29T01:35:04.190Z,101287.59
2022-11-29T01:35:34.611Z,101282.55
2022-11-29T01:36:05.033Z,101284.91
2022-11-29T01:36:35.468Z,101287.25
2022-11-29T01:37:05.923Z,101288.77
2022-11-29T01:37:36.327Z,101287.61
2022-11-29T01:38:06.762Z,101291.11
2022-11-29T01:38:37.187Z,101290.45
2022-11-29T01:39:07.605Z,101287.59
2022-11-29T01:39:38.027Z,101287.25
2022-11-29T01:40:08.449Z,101292.11
2022-11-29T01:40:38.880Z,101284.40
2022-11-29T01:41:09.301Z,101286.77
2022-11-29T01:41:39.726Z,101282.38
2022-11-29T01:42:10.149Z,101282.05
2022-11-29T01:42:40.571Z,101284.08
2022-11-29T01:43:11.007Z,101283.06
2022-11-29T01:43:41.430Z,101284.06
2022-11-29T01:44:11.851Z,101286.94
2022-11-29T01:44:42.781Z,101283.22
2022-11-29T01:45:13.421Z,101283.73
2022-11-29T01:45:43.911Z,101285.77
2022-11-29T01:46:14.316Z,101283.25
2022-11-29T01:46:44.706Z,101283.90
2022-11-29T01:47:15.119Z,101283.25
2022-11-29T01:47:45.542Z,101280.72
2022-11-29T01:48:15.975Z,101281.72
2022-11-29T01:48:46.423Z,101279.70
2022-11-29T01:49:16.850Z,101282.58
2022-11-29T01:49:47.272Z,101278.52
2022-11-29T01:50:17.699Z,101279.87
2022-11-29T01:50:48.116Z,101277.01
2022-11-29T01:51:18.536Z,101275.19
2022-11-29T01:51:48.960Z,101281.88
2022-11-29T01:52:19.415Z,101279.70
2022-11-29T01:52:49.816Z,101279.55
2022-11-29T01:53:20.260Z,101277.70
2022-11-29T01:53:50.683Z,101275.33
2022-11-29T01:54:21.115Z,101279.22
2022-11-29T01:54:51.524Z,101276.69
2022-11-29T01:55:21.946Z,101279.02
2022-11-29T01:55:52.479Z,101277.34
2022-11-29T01:56:23.139Z,101279.19
2022-11-29T01:56:53.562Z,101277.36
2022-11-29T01:57:23.985Z,101278.70
2022-11-29T01:57:54.407Z,101281.73
2022-11-29T01:58:24.836Z,101281.88
2022-11-29T01:58:55.257Z,101278.69
2022-11-29T01:59:25.724Z,101276.84
2022-11-29T01:59:56.136Z,101282.70
2022-11-29T02:00:26.576Z,101279.70
2022-11-29T02:00:57.108Z,101281.05
2022-11-29T02:01:27.583Z,101280.03
2022-11-29T02:01:57.960Z,101283.08
2022-11-29T02:02:28.388Z,101282.72
2022-11-29T02:02:58.859Z,101284.06
2022-11-29T02:03:29.255Z,101284.21
2022-11-29T02:03:59.679Z,101282.89
2022-11-29T02:04:30.100Z,101284.41
2022-11-29T02:05:00.523Z,101283.55
2022-11-29T02:05:30.953Z,101283.06
2022-11-29T02:06:01.394Z,101280.53
2022-11-29T02:06:31.815Z,101282.55
2022-11-29T02:07:02.236Z,101279.72
2022-11-29T02:07:32.734Z,101279.03
2022-11-29T02:08:03.140Z,101279.03
2022-11-29T02:08:33.573Z,101282.89
2022-11-29T02:09:03.995Z,101279.72
2022-11-29T02:09:34.415Z,101281.39
2022-11-29T02:10:04.839Z,101276.86
2022-11-29T02:10:35.256Z,101280.38
2022-11-29T02:11:05.689Z,101279.88
2022-11-29T02:11:36.124Z,101280.20
2022-11-29T02:12:06.547Z,101283.75
2022-11-29T02:12:36.967Z,101281.05
2022-11-29T02:13:07.388Z,101279.89
2022-11-29T02:13:37.821Z,101277.53
2022-11-29T02:14:08.250Z,101279.38
2022-11-29T02:14:38.672Z,101280.22
2022-11-29T02:15:09.104Z,101278.20
2022-11-29T02:15:39.570Z,101278.02
2022-11-29T02:16:09.982Z,101278.19
2022-11-29T02:16:40.383Z,101277.03
2022-11-29T02:17:10.803Z,101277.00
2022-11-29T02:17:41.226Z,101278.85
2022-11-29T02:18:11.651Z,101275.02
2022-11-29T02:18:42.092Z,101281.88
2022-11-29T02:19:12.528Z,101280.38
2022-11-29T02:19:42.944Z,101281.38
2022-11-29T02:20:13.406Z,101281.71
2022-11-29T02:20:43.831Z,101278.54
2022-11-29T02:21:14.252Z,101277.53
2022-11-29T02:21:44.681Z,101281.36
2022-11-29T02:22:15.107Z,101283.73
2022-11-29T02:22:45.546Z,101279.89
2022-11-29T02:23:15.952Z,101281.55
2022-11-29T02:23:46.387Z,101282.39
2022-11-29T02:24:16.807Z,101281.21
2022-11-29T02:24:47.565Z,101281.19
2022-11-29T02:25:18.066Z,101284.91
2022-11-29T02:25:48.498Z,101285.77
2022-11-29T02:26:18.920Z,101285.74
2022-11-29T02:26:49.345Z,101285.23
2022-11-29T02:27:19.768Z,101285.06
2022-11-29T02:27:50.192Z,101284.92
2022-11-29T02:28:20.613Z,101286.56
2022-11-29T02:28:51.056Z,101287.92
2022-11-29T02:29:21.487Z,101289.75
2022-11-29T02:29:51.909Z,101290.45
2022-11-29T02:30:22.333Z,101290.11
2022-11-29T02:30:52.793Z,101288.77
2022-11-29T02:31:23.176Z,101289.94
2022-11-29T02:31:53.596Z,101289.95
2022-11-29T02:32:24.017Z,101291.62
2022-11-29T02:32:54.439Z,101290.11
2022-11-29T02:33:24.861Z,101291.30
2022-11-29T02:33:55.300Z,101291.30
2022-11-29T02:34:25.720Z,101291.80
2022-11-29T02:34:56.149Z,101290.28
2022-11-29T02:35:26.582Z,101291.14
2022-11-29T02:35:57.002Z,101290.97
2022-11-29T02:36:27.430Z,101291.95
2022-11-29T02:36:57.845Z,101292.48
2022-11-29T02:37:28.262Z,101292.98
2022-11-29T02:37:58.705Z,101296.48
2022-11-29T02:38:29.122Z,101296.15
2022-11-29T02:38:59.554Z,101295.15
2022-11-29T02:39:29.971Z,101294.48
2022-11-29T02:40:00.403Z,101298.66
2022-11-29T02:40:30.820Z,101296.69
2022-11-29T02:41:01.246Z,101293.64
2022-11-29T02:41:31.665Z,101294.98
2022-11-29T02:42:02.088Z,101294.48
2022-11-29T02:42:32.510Z,101296.01
2022-11-29T02:43:02.951Z,101297.48
2022-11-29T02:43:33.372Z,101295.97
2022-11-29T02:44:03.804Z,101294.98
2022-11-29T02:44:34.223Z,101292.95
2022-11-29T02:45:04.682Z,101295.47
2022-11-29T02:45:35.072Z,101290.95
2022-11-29T02:46:05.533Z,101292.61
2022-11-29T02:46:35.973Z,101292.97
2022-11-29T02:47:06.367Z,101292.97
2022-11-29T02:47:36.789Z,101294.30
2022-11-29T02:48:07.214Z,101292.30
2022-11-29T02:48:37.634Z,101298.33
2022-11-29T02:49:08.078Z,101294.98
2022-11-29T02:49:38.493Z,101294.64
2022-11-29T02:50:08.936Z,101298.34
2022-11-29T02:50:39.359Z,101298.48
2022-11-29T02:51:09.787Z,101296.66
2022-11-29T02:51:40.215Z,101295.12
2022-11-29T02:52:10.631Z,101297.50
2022-11-29T02:52:41.058Z,101298.02
2022-11-29T02:53:11.506Z,101302.53
2022-11-29T02:53:41.903Z,101299.19
2022-11-29T02:54:12.345Z,101300.19
2022-11-29T02:54:43.194Z,101301.20
2022-11-29T02:55:13.719Z,101297.67
2022-11-29T02:55:44.154Z,101297.33
2022-11-29T02:56:14.580Z,101298.67
2022-11-29T02:56:45.018Z,101302.69
2022-11-29T02:57:15.445Z,101300.04
2022-11-29T02:57:45.883Z,101298.68
2022-11-29T02:58:16.305Z,101299.86
2022-11-29T02:58:46.729Z,101301.20
2022-11-29T02:59:17.172Z,101301.01
2022-11-29T02:59:47.593Z,101299.02
2022-11-29T03:00:18.016Z,101300.19
2022-11-29T03:00:48.440Z,101297.67
2022-11-29T03:01:18.961Z,101296.99
2022-11-29T03:01:49.423Z,101297.83
2022-11-29T03:02:19.869Z,101294.30
2022-11-29T03:02:50.319Z,101296.66
2022-11-29T03:03:20.696Z,101298.83
2022-11-29T03:03:51.117Z,101296.50
2022-11-29T03:04:21.551Z,101300.69
2022-11-29T03:04:51.976Z,101296.98
2022-11-29T03:05:22.397Z,101299.50
2022-11-29T03:05:52.818Z,101298.01
2022-11-29T03:06:23.241Z,101297.84
2022-11-29T03:06:53.663Z,101301.19
2022-11-29T03:07:24.157Z,101300.00
2022-11-29T03:07:54.610Z,101300.35
2022-11-29T03:08:25.017Z,101297.84
2022-11-29T03:08:55.420Z,101301.70
2022-11-29T03:09:25.868Z,101300.33
2022-11-29T03:09:56.293Z,101298.34
2022-11-29T03:10:26.715Z,101300.69
2022-11-29T03:10:57.138Z,101303.86
2022-11-29T03:11:27.559Z,101301.34
2022-11-29T03:11:57.980Z,101303.04
2022-11-29T03:12:28.402Z,101307.03
2022-11-29T03:12:58.823Z,101302.03
2022-11-29T03:13:29.255Z,101301.85
2022-11-29T03:13:59.679Z,101304.05
2022-11-29T03:14:30.119Z,101302.88
2022-11-29T03:15:00.535Z,101307.73
2022-11-29T03:15:31.002Z,101307.58
2022-11-29T03:16:01.465Z,101304.89
2022-11-29T03:16:42.550Z,101303.89
2022-11-29T03:17:12.046Z,101306.05
2022-11-29T03:17:42.476Z,101305.55
2022-11-29T03:18:12.931Z,101306.72
2022-11-29T03:18:43.360Z,101308.57
2022-11-29T03:19:13.779Z,101309.41
2022-11-29T03:19:44.224Z,101306.89
2022-11-29T03:20:14.665Z,101307.73
2022-11-29T03:20:45.083Z,101309.94
2022-11-29T03:21:15.511Z,101309.09
2022-11-29T03:21:45.933Z,101307.56
2022-11-29T03:22:16.355Z,101311.09
2022-11-29T03:22:46.778Z,101308.91
2022-11-29T03:23:17.216Z,101308.08
2022-11-29T03:23:47.712Z,101306.23
2022-11-29T03:24:18.096Z,101307.90
2022-11-29T03:24:48.529Z,101306.57
2022-11-29T03:25:18.950Z,101311.11
2022-11-29T03:25:49.383Z,101312.28
2022-11-29T03:26:19.821Z,101311.10
2022-11-29T03:26:50.240Z,101313.44
2022-11-29T03:27:20.677Z,101310.60
2022-11-29T03:27:51.100Z,101310.44
2022-11-29T03:28:21.522Z,101311.78
2022-11-29T03:28:51.943Z,101310.62
2022-11-29T03:29:22.368Z,101314.28
2022-11-29T03:29:52.816Z,101314.28
2022-11-29T03:30:23.236Z,101314.64
2022-11-29T03:30:53.708Z,101315.30
2022-11-29T03:31:24.110Z,101316.63
2022-11-29T03:31:54.516Z,101320.34
2022-11-29T03:32:24.935Z,101314.66
2022-11-29T03:32:55.358Z,101320.02
2022-11-29T03:33:25.782Z,101319.51
2022-11-29T03:33:56.222Z,101320.03
2022-11-29T03:34:26.644Z,101320.37
2022-11-29T03:34:57.575Z,101319.34
2022-11-29T03:35:28.120Z,101322.53
2022-11-29T03:35:58.539Z,101322.53
2022-11-29T03:36:28.967Z,101323.20
2022-11-29T03:36:59.382Z,101324.56
2022-11-29T03:37:29.810Z,101322.20
2022-11-29T03:38:00.228Z,101323.05
2022-11-29T03:38:30.660Z,101326.05
2022-11-29T03:39:01.106Z,101325.05
2022-11-29T03:39:31.508Z,101327.76
2022-11-29T03:40:01.952Z,101330.77
2022-11-29T03:40:32.376Z,101325.56
2022-11-29T03:41:02.799Z,101325.91
2022-11-29T03:41:33.235Z,101323.89
2022-11-29T03:42:03.669Z,101327.41
2022-11-29T03:42:34.092Z,101328.92
2022-11-29T03:43:04.520Z,101329.08
2022-11-29T03:43:34.934Z,101327.41
2022-11-29T03:44:05.368Z,101325.73
2022-11-29T03:44:35.791Z,101328.94
2022-11-29T03:45:06.263Z,101328.09
2022-11-29T03:45:36.683Z,101325.06
2022-11-29T03:46:07.169Z,101324.73
2022-11-29T03:46:37.596Z,101331.44
2022-11-29T03:47:07.977Z,101331.61
2022-11-29T03:47:38.409Z,101329.75
2022-11-29T03:48:08.819Z,101332.62
2022-11-29T03:48:39.240Z,101334.97
2022-11-29T03:49:09.660Z,101328.77
2022-11-29T03:49:40.085Z,101334.61
2022-11-29T03:50:10.531Z,101330.61
2022-11-29T03:50:40.936Z,101330.11
2022-11-29T03:51:11.359Z,101332.47
2022-11-29T03:51:41.781Z,101333.45
2022-11-29T03:52:12.237Z,101331.94
2022-11-29T03:52:42.695Z,101331.77
2022-11-29T03:53:13.116Z,101333.62
2022-11-29T03:53:43.568Z,101327.41
2022-11-29T03:54:14.008Z,101325.58
2022-11-29T03:54:44.662Z,101325.41
2022-11-29T03:55:15.190Z,101329.25
2022-11-29T03:55:45.622Z,101327.09
2022-11-29T03:56:16.045Z,101328.08
2022-11-29T03:56:46.477Z,101327.23
2022-11-29T03:57:16.901Z,101325.56
2022-11-29T03:57:47.325Z,101325.55
2022-11-29T03:58:17.747Z,101326.41
2022-11-29T03:58:48.172Z,101322.70
2022-11-29T03:59:18.618Z,101324.41
2022-11-29T03:59:49.038Z,101329.42
2022-11-29T04:00:19.472Z,101324.57
2022-11-29T04:00:49.901Z,101324.55
2022-11-29T04:01:20.365Z,101324.55
2022-11-29T04:01:50.786Z,101323.91
2022-11-29T04:02:21.318Z,101326.41
2022-11-29T04:02:51.746Z,101326.23
2022-11-29T04:03:22.127Z,101325.74
2022-11-29T04:03:52.560Z,101327.92
2022-11-29T04:04:22.982Z,101327.74
2022-11-29T04:04:53.409Z,101323.05
2022-11-29T04:05:23.844Z,101324.23
2022-11-29T04:05:54.266Z,101322.89
2022-11-29T04:06:24.701Z,101322.20
2022-11-29T04:06:55.120Z,101324.72
2022-11-29T04:07:25.561Z,101324.40
2022-11-29T04:07:56.033Z,101325.74
2022-11-29T04:08:26.416Z,101326.58
2022-11-29T04:08:56.835Z,101331.11
2022-11-29T04:09:27.280Z,101324.05
2022-11-29T04:09:57.687Z,101324.73
2022-11-29T04:10:28.165Z,101322.89
2022-11-29T04:10:58.675Z,101325.72
2022-11-29T04:11:29.101Z,101328.92
2022-11-29T04:11:59.523Z,101327.06
2022-11-29T04:12:29.959Z,101324.23
2022-11-29T04:13:00.378Z,101327.58
2022-11-29T04:13:30.803Z,101326.75
2022-11-29T04:14:01.229Z,101322.05
2022-11-29T04:14:31.648Z,101323.89
2022-11-29T04:15:02.069Z,101329.10
2022-11-29T04:15:32.512Z,101327.09
2022-11-29T04:16:03.113Z,101323.88
2022-11-29T04:16:33.528Z,101328.43
2022-11-29T04:17:03.955Z,101331.10
2022-11-29T04:17:34.405Z,101328.59
2022-11-29T04:18:04.825Z,101328.08
2022-11-29T04:18:35.248Z,101325.07
2022-11-29T04:19:05.671Z,101330.43
2022-11-29T04:19:36.093Z,101331.11
2022-11-29T04:20:06.514Z,101332.12
2022-11-29T04:20:40.391Z,101330.11
2022-11-29T04:21:12.271Z,101326.73
2022-11-29T04:21:42.693Z,101328.41
2022-11-29T04:22:13.127Z,101328.27
2022-11-29T04:22:43.547Z,101330.77
2022-11-29T04:23:13.969Z,101330.43
2022-11-29T04:23:44.395Z,101332.62
2022-11-29T04:24:14.816Z,101333.45
2022-11-29T04:24:45.472Z,101332.11
2022-11-29T04:25:16.048Z,101331.62
2022-11-29T04:25:46.482Z,101335.64
2022-11-29T04:26:16.906Z,101336.50
2022-11-29T04:26:47.345Z,101332.63
2022-11-29T04:27:17.767Z,101335.98
2022-11-29T04:27:48.188Z,101334.64
2022-11-29T04:28:18.612Z,101334.63
2022-11-29T04:28:49.041Z,101336.00
2022-11-29T04:29:19.464Z,101335.31
2022-11-29T04:29:49.889Z,101334.30
2022-11-29T04:30:20.309Z,101328.75
2022-11-29T04:30:50.780Z,101333.97
2022-11-29T04:31:21.267Z,101330.78
2022-11-29T04:31:51.644Z,101327.09
2022-11-29T04:32:22.066Z,101329.95
2022-11-29T04:32:52.512Z,101325.73
2022-11-29T04:33:22.934Z,101323.59
2022-11-29T04:33:53.358Z,101326.09
2022-11-29T04:34:23.775Z,101330.45
2022-11-29T04:34:54.212Z,101328.09
2022-11-29T04:35:24.636Z,101329.11
2022-11-29T04:35:55.072Z,101330.79
2022-11-29T04:36:25.503Z,101329.61
2022-11-29T04:36:55.937Z,101330.77
2022-11-29T04:37:26.362Z,101329.94
2022-11-29T04:37:56.785Z,101331.95
2022-11-29T04:38:27.210Z,101335.83
2022-11-29T04:38:57.632Z,101333.12
2022-11-29T04:39:28.055Z,101337.51
2022-11-29T04:39:58.501Z,101336.99
2022-11-29T04:40:28.900Z,101337.32
2022-11-29T04:40:59.345Z,101337.16
2022-11-29T04:41:29.761Z,101336.16
2022-11-29T04:42:00.195Z,101336.81
2022-11-29T04:42:30.623Z,101335.81
2022-11-29T04:43:01.039Z,101336.15
2022-11-29T04:43:31.464Z,101337.66
2022-11-29T04:44:01.881Z,101339.69
2022-11-29T04:44:32.328Z,101333.64
2022-11-29T04:45:02.753Z,101336.67
2022-11-29T04:45:33.177Z,101336.31
2022-11-29T04:46:03.716Z,101337.34
2022-11-29T04:46:34.228Z,101340.03
2022-11-29T04:47:04.649Z,101338.83
2022-11-29T04:47:35.071Z,101339.50
2022-11-29T04:48:05.495Z,101337.87
2022-11-29T04:48:35.927Z,101340.68
2022-11-29T04:49:06.350Z,101337.00
2022-11-29T04:49:36.773Z,101343.89
2022-11-29T04:50:07.204Z,101337.17
2022-11-29T04:50:37.625Z,101342.05
2022-11-29T04:51:08.076Z,101341.35
2022-11-29T04:51:38.500Z,101342.21
2022-11-29T04:52:08.923Z,101343.38
2022-11-29T04:52:39.351Z,101343.88
2022-11-29T04:53:09.771Z,101345.05
2022-11-29T04:53:40.201Z,101343.05
2022-11-29T04:54:10.621Z,101345.72
2022-11-29T04:54:41.044Z,101345.06
2022-11-29T04:55:11.492Z,101343.70
2022-11-29T04:55:41.892Z,101344.89
2022-11-29T04:56:12.350Z,101343.37
2022-11-29T04:56:42.776Z,101347.90
2022-11-29T04:57:13.197Z,101347.08
2022-11-29T04:57:43.616Z,101346.89
2022-11-29T04:58:14.042Z,101346.56
2022-11-29T04:58:44.460Z,101344.71
2022-11-29T04:59:14.890Z,101343.55
2022-11-29T04:59:45.309Z,101348.08
2022-11-29T05:00:15.742Z,101348.08
2022-11-29T05:00:46.198Z,101345.06
2022-11-29T05:01:16.699Z,101346.89
2022-11-29T05:01:47.117Z,101347.23
2022-11-29T05:02:17.662Z,101343.54
2022-11-29T05:02:48.094Z,101346.39
2022-11-29T05:03:18.472Z,101343.38
2022-11-29T05:03:53.826Z,101344.56
2022-11-29T05:04:24.218Z,101346.58
2022-11-29T05:04:54.638Z,101347.40
2022-11-29T05:05:25.060Z,101349.75
2022-11-29T05:05:55.483Z,101348.23
2022-11-29T05:06:25.922Z,101345.38
2022-11-29T05:06:56.338Z,101347.75
2022-11-29T05:07:26.791Z,101346.91
2022-11-29T05:07:57.243Z,101349.27
2022-11-29T05:08:27.679Z,101347.75
2022-11-29T05:08:58.091Z,101347.88
2022-11-29T05:09:28.513Z,101346.89
2022-11-29T05:09:58.939Z,101346.41
2022-11-29T05:10:29.382Z,101346.39
2022-11-29T05:10:59.785Z,101345.89
2022-11-29T05:11:30.215Z,101345.72
2022-11-29T05:12:00.637Z,101349.75
2022-11-29T05:12:31.080Z,101347.39
2022-11-29T05:13:01.496Z,101346.39
2022-11-29T05:13:31.917Z,101349.41
2022-11-29T05:14:02.343Z,101349.08
2022-11-29T05:14:32.768Z,101348.08
2022-11-29T05:15:03.197Z,101347.59
2022-11-29T05:15:33.628Z,101349.27
2022-11-29T05:16:04.094Z,101347.90
2022-11-29T05:16:34.519Z,101349.09
2022-11-29T05:17:04.940Z,101352.75
2022-11-29T05:17:35.365Z,101353.77
2022-11-29T05:18:05.786Z,101355.44
2022-11-29T05:18:36.210Z,101353.62
2022-11-29T05:19:06.630Z,101355.81
2022-11-29T05:19:37.083Z,101355.98
2022-11-29T05:20:07.493Z,101351.09
2022-11-29T05:20:37.916Z,101356.31
2022-11-29T05:21:08.340Z,101356.15
2022-11-29T05:21:38.784Z,101360.84
2022-11-29T05:22:09.210Z,101361.52
2022-11-29T05:22:39.663Z,101359.68
2022-11-29T05:23:10.099Z,101356.97
2022-11-29T05:23:40.530Z,101359.49
2022-11-29T05:24:11.089Z,101358.66
2022-11-29T05:24:41.562Z,101359.49
2022-11-29T05:25:11.928Z,101360.02
2022-11-29T05:25:42.378Z,101360.84
2022-11-29T05:26:12.782Z,101359.16
2022-11-29T05:26:43.222Z,101361.99
2022-11-29T05:27:13.644Z,101363.02
2022-11-29T05:27:44.087Z,101364.52
2022-11-29T05:28:14.506Z,101364.70
2022-11-29T05:28:44.935Z,101368.23
2022-11-29T05:29:15.350Z,101368.04
2022-11-29T05:29:45.776Z,101369.22
2022-11-29T05:30:16.212Z,101370.89
2022-11-29T05:30:46.960Z,101372.92
2022-11-29T05:31:17.396Z,101370.41
2022-11-29T05:31:47.790Z,101370.23
2022-11-29T05:32:18.219Z,101369.89
2022-11-29T05:32:48.645Z,101372.59
2022-11-29T05:33:19.077Z,101373.75
2022-11-29T05:33:49.501Z,101373.44
2022-11-29T05:34:19.921Z,101369.58
2022-11-29T05:34:50.902Z,101375.95
2022-11-29T05:35:21.435Z,101375.62
2022-11-29T05:35:51.859Z,101379.31
2022-11-29T05:36:22.279Z,101374.78
2022-11-29T05:36:52.732Z,101374.61
2022-11-29T05:37:23.138Z,101375.29
2022-11-29T05:37:53.561Z,101378.81
2022-11-29T05:38:23.981Z,101381.66
2022-11-29T05:38:54.399Z,101379.65
2022-11-29T05:39:24.818Z,101376.80
2022-11-29T05:39:55.238Z,101380.34
2022-11-29T05:40:25.668Z,101383.66
2022-11-29T05:40:56.113Z,101382.52
2022-11-29T05:41:26.515Z,101387.38
2022-11-29T05:41:56.953Z,101385.53
2022-11-29T05:42:27.386Z,101384.03
2022-11-29T05:42:57.798Z,101381.52
2022-11-29T05:43:28.219Z,101386.38
2022-11-29T05:43:58.640Z,101383.86
2022-11-29T05:44:29.077Z,101385.22
2022-11-29T05:44:59.501Z,101382.67
2022-11-29T05:45:29.921Z,101386.04
2022-11-29T05:46:00.353Z,101383.68
2022-11-29T05:46:30.826Z,101384.54
2022-11-29T05:47:01.219Z,101383.68
2022-11-29T05:47:31.785Z,101383.85